Irvington, AL

2:12 PM CDT on March 30, 2017 (GMT -0500)
Hampton Road | | Change Station

Elev 95 ft 30.51 °N, 88.20 °W | Updated 15 seconds ago

Overcast
Overcast
66.2 °F
Feels Like 66.2 °F
N
0.0
Wind Variable Wind from WSW
Gusts 0.0 mph

Today
High -- | Low -- °F
--% Chance of Precip.
Yesterday
High -- | Low -- °F
Precip. -- in
Pressure 29.89 in
Visibility 10.0 miles
Clouds Few 3500 ft
Mostly Cloudy 7000 ft
Overcast 8500 ft
Dew Point 64 °F
Humidity 94%
Rainfall 0.15 in
Snow Depth Not available.
6:44 AM 7:10 PM
Waxing Crescent, 10% visible
SPECI KMOB 301904Z 30005KT 10SM FEW035 BKN070 OVC085 18/16 A2989 RMK AO2 LTG DSNT ALQDS CB DSNT ALQDS T01830161
Pressure 29.89 in
Visibility 10.0 miles
Clouds Few 3500 ft
Mostly Cloudy 7000 ft
Overcast 8500 ft
Dew Point 64 °F
Humidity 94%
Rainfall 0.15 in
Snow Depth Not available.
6:44 AM 7:10 PM
Waxing Crescent, 10% visible
SPECI KMOB 301904Z 30005KT 10SM FEW035 BKN070 OVC085 18/16 A2989 RMK AO2 LTG DSNT ALQDS CB DSNT ALQDS T01830161

Get Severe Weather Alerts

Thanks for signing up!

Be on the lookout for a verification email in your inbox.

You'll start receiving the daily forecast at 8 AM.

×

10-Day Weather Forecast

Almanac

Astronomy

Mar. 30, 2017 Rise Set
Actual Time
Civil Twilight
Nautical Twilight
Astronomical Twilight
Moon
Length of Visible Light
Length of Day
Tomorrow will be .
, % of the Moon is Illuminated

Today's Extremes

State Highs State Lows

Community

WunderPhotos

Upload Photos

1,962,540 photos uploaded!

WunderBlog® & News

Nearby

Air Quality

  Air Quality AQ Index Pollutant
Not available.

Snow Depth

Station Depth Elevation

Earthquake Activity

City Distance Mag. Time & Date
Minimum magnitude displayed is 2.5.

Earthquake Activity

City Distance Mag. Time & Date
Minimum magnitude displayed is 2.5.

Coastal Water Temperatures

Place Temperature

Stations

Nearby Weather Stations

Station Location Temp. Windchill Dew Point Humidity Wind Precip. Elev Updated Type
                   

Watches & Warnings

There are currently no watches in effect.